createdAt,value
2023-02-19T00:01:31.181Z,78.13
2023-02-19T00:04:00.373Z,78.17
2023-02-19T00:06:32.522Z,76.91
2023-02-19T00:08:59.463Z,78.17
2023-02-19T00:11:28.883Z,79.29
2023-02-19T00:14:00.076Z,78.72
2023-02-19T00:16:40.392Z,78.84
2023-02-19T00:19:09.181Z,80.28
2023-02-19T00:21:35.614Z,79.08
2023-02-19T00:24:04.593Z,78.37
2023-02-19T00:26:31.654Z,77.94
2023-02-19T00:28:58.590Z,78.69
2023-02-19T00:31:28.395Z,77.81
2023-02-19T00:33:58.325Z,77.29
2023-02-19T00:36:37.488Z,77.36
2023-02-19T00:39:06.034Z,77.19
2023-02-19T00:41:32.866Z,78.13
2023-02-19T00:44:00.394Z,78.50
2023-02-19T00:46:29.281Z,78.81
2023-02-19T00:48:57.258Z,78.66
2023-02-19T00:51:26.945Z,78.46
2023-02-19T00:53:53.761Z,78.75
2023-02-19T00:56:23.642Z,79.63
2023-02-19T00:58:50.622Z,78.95
2023-02-19T01:01:17.855Z,79.02
2023-02-19T01:03:44.459Z,79.48
2023-02-19T01:06:13.356Z,78.49
2023-02-19T01:08:40.075Z,79.31
2023-02-19T01:11:09.079Z,78.92
2023-02-19T01:13:35.998Z,78.23
2023-02-19T01:16:08.047Z,79.52
2023-02-19T01:18:35.453Z,81.31
2023-02-19T01:21:23.814Z,79.43
2023-02-19T01:23:51.757Z,79.41
2023-02-19T01:26:20.965Z,78.69
2023-02-19T01:28:48.275Z,78.95
2023-02-19T01:31:18.199Z,79.97
2023-02-19T01:33:50.697Z,78.87
2023-02-19T01:36:17.340Z,80.18
2023-02-19T01:38:44.313Z,78.82
2023-02-19T01:41:24.526Z,79.65
2023-02-19T01:44:18.121Z,79.99
2023-02-19T01:46:46.446Z,79.24
2023-02-19T01:49:21.006Z,79.56
2023-02-19T01:52:12.957Z,80.17
2023-02-19T01:54:42.745Z,80.52
2023-02-19T01:57:15.800Z,79.98
2023-02-19T01:59:43.160Z,79.78
2023-02-19T02:02:09.800Z,79.69
2023-02-19T02:04:36.384Z,79.99
2023-02-19T02:07:26.242Z,80.23
2023-02-19T02:10:12.527Z,80.48
2023-02-19T02:12:38.940Z,79.72
2023-02-19T02:15:05.969Z,79.13
2023-02-19T02:17:39.643Z,80.09
2023-02-19T02:20:15.219Z,78.96
2023-02-19T02:22:59.664Z,79.74
2023-02-19T02:25:47.387Z,79.83
2023-02-19T02:28:48.080Z,80.15
2023-02-19T02:31:28.415Z,79.80
2023-02-19T02:34:19.092Z,79.25
2023-02-19T02:36:49.763Z,80.88
2023-02-19T02:39:21.783Z,80.51
2023-02-19T02:42:15.500Z,80.42
2023-02-19T02:45:03.210Z,81.38
2023-02-19T02:47:42.304Z,80.27
2023-02-19T02:50:20.349Z,81.07
2023-02-19T02:53:09.971Z,81.15
2023-02-19T02:55:40.813Z,81.67
2023-02-19T02:58:08.153Z,81.88
2023-02-19T03:00:56.959Z,81.13
2023-02-19T03:03:25.479Z,81.93
2023-02-19T03:05:56.479Z,81.90
2023-02-19T03:08:28.116Z,81.94
2023-02-19T03:11:28.007Z,82.42
2023-02-19T03:14:39.142Z,81.66
2023-02-19T03:17:39.528Z,81.75
2023-02-19T03:20:10.945Z,80.61
2023-02-19T03:22:38.796Z,81.41
2023-02-19T03:25:29.165Z,80.83
2023-02-19T03:27:59.775Z,81.11
2023-02-19T03:30:31.757Z,80.31
2023-02-19T03:33:02.283Z,81.55
2023-02-19T03:35:34.903Z,82.02
2023-02-19T03:38:20.135Z,81.24
2023-02-19T03:41:03.537Z,80.91
2023-02-19T03:43:39.173Z,80.25
2023-02-19T03:46:25.623Z,80.31
2023-02-19T03:48:58.764Z,81.13
2023-02-19T03:51:42.665Z,81.97
2023-02-19T03:54:23.447Z,80.85
2023-02-19T03:56:54.173Z,82.14
2023-02-19T03:59:43.476Z,83.15
2023-02-19T04:02:26.095Z,87.03
2023-02-19T04:05:18.307Z,86.50
2023-02-19T04:07:48.888Z,86.51
2023-02-19T04:10:17.734Z,88.27
2023-02-19T04:12:50.508Z,90.36
2023-02-19T04:15:22.131Z,92.21
2023-02-19T04:18:07.387Z,94.00
2023-02-19T04:20:41.004Z,94.52
2023-02-19T04:23:08.063Z,98.63
2023-02-19T04:25:38.197Z,100.00
2023-02-19T04:28:04.840Z,100.00
2023-02-19T04:30:31.531Z,100.00
2023-02-19T04:32:58.007Z,100.00
2023-02-19T04:35:24.384Z,100.00
2023-02-19T04:37:50.839Z,100.00
2023-02-19T04:40:17.320Z,100.00
2023-02-19T04:42:43.689Z,100.00
2023-02-19T04:45:10.132Z,100.00
2023-02-19T04:47:36.517Z,100.00
2023-02-19T04:50:03.221Z,100.00
2023-02-19T04:52:29.645Z,100.00
2023-02-19T04:54:56.043Z,100.00
2023-02-19T04:57:22.435Z,100.00
2023-02-19T04:59:48.821Z,100.00
2023-02-19T05:02:15.200Z,100.00
2023-02-19T05:04:41.693Z,100.00
2023-02-19T05:07:08.459Z,100.00
2023-02-19T05:09:34.874Z,100.00
2023-02-19T05:12:01.377Z,100.00
2023-02-19T05:14:27.749Z,100.00
2023-02-19T05:16:54.140Z,100.00
2023-02-19T05:19:20.668Z,100.00
2023-02-19T05:21:47.029Z,100.00
2023-02-19T05:24:13.409Z,100.00
2023-02-19T05:26:39.853Z,100.00
2023-02-19T05:29:06.340Z,100.00
2023-02-19T05:31:33.848Z,100.00
2023-02-19T05:34:00.487Z,100.00
2023-02-19T05:36:27.019Z,100.00
2023-02-19T05:38:55.306Z,100.00
2023-02-19T05:41:27.327Z,100.00
2023-02-19T05:43:54.964Z,100.00
2023-02-19T05:46:26.708Z,100.00
2023-02-19T05:48:53.760Z,100.00
2023-02-19T05:51:22.132Z,100.00
2023-02-19T05:53:49.145Z,100.00
2023-02-19T05:56:26.755Z,100.00
2023-02-19T05:58:54.652Z,100.00
2023-02-19T06:01:23.991Z,100.00
2023-02-19T06:03:50.440Z,100.00
2023-02-19T06:06:18.833Z,100.00
2023-02-19T06:08:45.910Z,100.00
2023-02-19T06:11:12.694Z,100.00
2023-02-19T06:13:39.301Z,100.00
2023-02-19T06:16:07.498Z,100.00
2023-02-19T06:18:34.229Z,100.00
2023-02-19T06:21:05.610Z,100.00
2023-02-19T06:23:32.158Z,100.00
2023-02-19T06:26:10.449Z,100.00
2023-02-19T06:28:37.983Z,100.00
2023-02-19T06:31:05.899Z,100.00
2023-02-19T06:33:33.489Z,100.00
2023-02-19T06:36:04.342Z,100.00
2023-02-19T06:38:31.431Z,100.00
2023-02-19T06:41:05.544Z,100.00
2023-02-19T06:43:33.277Z,100.00
2023-02-19T06:46:04.941Z,100.00
2023-02-19T06:48:32.626Z,100.00
2023-02-19T06:50:59.525Z,100.00
2023-02-19T06:53:26.125Z,100.00
2023-02-19T06:56:07.391Z,100.00
2023-02-19T06:58:34.470Z,100.00
2023-02-19T07:01:01.400Z,100.00
2023-02-19T07:03:27.931Z,100.00
2023-02-19T07:05:54.367Z,100.00
2023-02-19T07:08:21.021Z,100.00
2023-02-19T07:10:56.407Z,100.00
2023-02-19T07:13:24.193Z,100.00
2023-02-19T07:15:52.162Z,100.00
2023-02-19T07:18:18.893Z,100.00
2023-02-19T07:20:45.440Z,100.00
2023-02-19T07:23:11.819Z,100.00
2023-02-19T07:25:38.822Z,100.00
2023-02-19T07:28:06.165Z,100.00
2023-02-19T07:30:38.496Z,100.00
2023-02-19T07:33:04.942Z,100.00
2023-02-19T07:35:31.325Z,100.00
2023-02-19T07:37:57.742Z,100.00
2023-02-19T07:40:30.480Z,100.00
2023-02-19T07:42:59.451Z,100.00
2023-02-19T07:45:25.901Z,100.00
2023-02-19T07:47:54.421Z,100.00
2023-02-19T07:50:20.820Z,100.00
2023-02-19T07:52:50.300Z,100.00
2023-02-19T07:55:25.936Z,100.00
2023-02-19T07:57:53.322Z,100.00
2023-02-19T08:00:27.800Z,100.00
2023-02-19T08:03:00.095Z,100.00
2023-02-19T08:05:41.119Z,100.00
2023-02-19T08:08:10.477Z,100.00
2023-02-19T08:11:10.455Z,100.00
2023-02-19T08:13:38.227Z,100.00
2023-02-19T08:16:16.876Z,100.00
2023-02-19T08:18:54.059Z,100.00
2023-02-19T08:21:27.864Z,100.00
2023-02-19T08:24:06.558Z,100.00
2023-02-19T08:26:41.278Z,100.00
2023-02-19T08:29:07.810Z,100.00
2023-02-19T08:31:35.072Z,100.00
2023-02-19T08:34:01.596Z,100.00
2023-02-19T08:36:36.077Z,100.00
2023-02-19T08:39:02.538Z,100.00
2023-02-19T08:41:30.906Z,100.00
2023-02-19T08:43:57.283Z,100.00
2023-02-19T08:46:34.598Z,100.00
2023-02-19T08:49:16.425Z,100.00
2023-02-19T08:51:49.055Z,100.00
2023-02-19T08:54:22.536Z,100.00
2023-02-19T08:56:56.227Z,100.00
2023-02-19T08:59:23.738Z,100.00
2023-02-19T09:01:50.854Z,100.00
2023-02-19T09:04:17.301Z,100.00
2023-02-19T09:06:43.721Z,100.00
2023-02-19T09:09:11.169Z,100.00
2023-02-19T09:11:55.902Z,100.00
2023-02-19T09:14:33.779Z,100.00
2023-02-19T09:17:01.454Z,100.00
2023-02-19T09:19:28.857Z,100.00
2023-02-19T09:21:56.047Z,100.00
2023-02-19T09:24:22.942Z,100.00
2023-02-19T09:26:50.496Z,100.00
2023-02-19T09:29:16.902Z,100.00
2023-02-19T09:31:43.529Z,99.33
2023-02-19T09:34:11.690Z,98.75
2023-02-19T09:36:39.454Z,99.31
2023-02-19T09:39:07.750Z,99.90
2023-02-19T09:41:37.846Z,99.97
2023-02-19T09:44:09.754Z,99.09
2023-02-19T09:46:45.777Z,100.00
2023-02-19T09:49:19.715Z,100.00
2023-02-19T09:52:10.138Z,100.00
2023-02-19T09:54:37.988Z,99.52
2023-02-19T09:57:21.520Z,100.00
2023-02-19T09:59:51.645Z,100.00
2023-02-19T10:02:30.804Z,100.00
2023-02-19T10:04:58.001Z,100.00
2023-02-19T10:07:33.079Z,100.00
2023-02-19T10:10:25.670Z,100.00
2023-02-19T10:12:56.059Z,100.00
2023-02-19T10:15:30.239Z,100.00
2023-02-19T10:17:56.835Z,100.00
2023-02-19T10:20:27.802Z,100.00
2023-02-19T10:23:03.420Z,100.00
2023-02-19T10:25:31.726Z,100.00
2023-02-19T10:28:00.206Z,100.00
2023-02-19T10:30:35.498Z,100.00
2023-02-19T10:33:08.645Z,100.00
2023-02-19T10:35:37.904Z,100.00
2023-02-19T10:38:06.806Z,99.85
2023-02-19T10:40:33.848Z,98.26
2023-02-19T10:43:04.603Z,99.26
2023-02-19T10:45:45.209Z,99.05
2023-02-19T10:48:24.775Z,99.52
2023-02-19T10:50:58.144Z,99.62
2023-02-19T10:53:37.882Z,100.00
2023-02-19T10:56:12.799Z,100.00
2023-02-19T10:58:42.320Z,100.00
2023-02-19T11:01:27.811Z,100.00
2023-02-19T11:04:17.577Z,99.46
2023-02-19T11:06:46.646Z,99.25
2023-02-19T11:09:28.203Z,95.24
2023-02-19T11:11:56.222Z,93.49
2023-02-19T11:14:24.635Z,92.50
2023-02-19T11:16:57.513Z,87.95
2023-02-19T11:19:39.601Z,89.61
2023-02-19T11:22:30.511Z,89.82
2023-02-19T11:25:04.743Z,90.13
2023-02-19T11:27:32.078Z,88.54
2023-02-19T11:30:37.777Z,85.08
2023-02-19T11:33:17.410Z,83.58
2023-02-19T11:35:45.040Z,86.13
2023-02-19T11:38:13.829Z,83.90
2023-02-19T11:41:22.318Z,84.23
2023-02-19T11:44:03.592Z,83.89
2023-02-19T11:46:57.305Z,84.32
2023-02-19T11:49:54.533Z,86.51
2023-02-19T11:53:10.967Z,83.13
2023-02-19T11:56:21.729Z,84.77
2023-02-19T11:59:07.382Z,85.08
2023-02-19T12:01:47.067Z,83.11
2023-02-19T12:05:03.704Z,84.61
2023-02-19T12:08:14.253Z,84.07
2023-02-19T12:11:11.465Z,82.83
2023-02-19T12:14:03.845Z,82.17
2023-02-19T12:16:46.304Z,80.90
2023-02-19T12:19:34.778Z,81.27
2023-02-19T12:22:30.563Z,81.01
2023-02-19T12:24:59.987Z,80.76
2023-02-19T12:27:43.061Z,78.97
2023-02-19T12:30:12.783Z,77.94
